createdAt,value
2018-12-29T00:00:59.232Z,98364.48
2018-12-29T00:03:33.249Z,98359.67
2018-12-29T00:06:08.071Z,98369.28
2018-12-29T00:08:54.460Z,98369.28
2018-12-29T00:11:34.539Z,98362.44
2018-12-29T00:14:23.625Z,98371.63
2018-12-29T00:17:00.578Z,98365.09
2018-12-29T00:19:45.225Z,98367.09
2018-12-29T00:22:48.091Z,98357.77
2018-12-29T00:25:38.717Z,98357.77
2018-12-29T00:28:18.733Z,98365.45
2018-12-29T00:31:12.470Z,98365.45
2018-12-29T00:34:18.729Z,98365.61
2018-12-29T00:37:06.576Z,98372.15
2018-12-29T00:39:48.742Z,98372.15
2018-12-29T00:42:28.456Z,98372.81
2018-12-29T00:45:03.067Z,98370.13
2018-12-29T00:47:43.476Z,98371.29
2018-12-29T00:50:16.712Z,98371.29
2018-12-29T00:53:05.184Z,98375.38
2018-12-29T00:55:35.211Z,98375.44
2018-12-29T00:58:11.460Z,98389.59
2018-12-29T01:00:57.847Z,98389.59
2018-12-29T01:03:33.470Z,98379.89
2018-12-29T01:06:25.168Z,98382.92
2018-12-29T01:09:02.787Z,98382.92
2018-12-29T01:11:43.513Z,98389.59
2018-12-29T01:14:29.992Z,98389.59
2018-12-29T01:17:11.594Z,98394.07
2018-12-29T01:19:59.256Z,98391.34
2018-12-29T01:22:40.095Z,98383.83
2018-12-29T01:25:14.023Z,98390.13
2018-12-29T01:28:03.642Z,98387.82
2018-12-29T01:30:45.211Z,98392.49
2018-12-29T01:33:22.576Z,98386.38
2018-12-29T01:36:11.577Z,98387.64
2018-12-29T01:38:49.327Z,98378.68
2018-12-29T01:41:28.175Z,98378.68
2018-12-29T01:44:11.513Z,98386.19
2018-12-29T01:46:52.269Z,98376.21
2018-12-29T01:49:29.223Z,98376.21
2018-12-29T01:52:05.110Z,98380.22
2018-12-29T01:54:51.831Z,98387.14
2018-12-29T01:57:37.030Z,98382.91
2018-12-29T02:00:20.111Z,98377.73
2018-12-29T02:02:59.511Z,98377.73
2018-12-29T02:05:41.595Z,98363.36
2018-12-29T02:08:21.862Z,98366.47
2018-12-29T02:10:57.290Z,98371.09
2018-12-29T02:13:34.496Z,98366.50
2018-12-29T02:16:16.454Z,98357.08
2018-12-29T02:18:52.749Z,98357.08
2018-12-29T02:21:34.471Z,98356.25
2018-12-29T02:24:15.345Z,98355.59
2018-12-29T02:26:52.421Z,98356.16
2018-12-29T02:29:38.571Z,98355.78
2018-12-29T02:32:19.385Z,98356.53
2018-12-29T02:34:56.911Z,98347.45
2018-12-29T02:37:45.293Z,98350.66
2018-12-29T02:40:22.432Z,98345.06
2018-12-29T02:42:59.145Z,98345.06
2018-12-29T02:45:50.006Z,98341.30
2018-12-29T02:48:38.119Z,98342.81
2018-12-29T02:51:10.207Z,98343.00
2018-12-29T02:54:00.410Z,98338.56
2018-12-29T02:56:46.333Z,98332.41
2018-12-29T02:59:17.709Z,98332.41
2018-12-29T03:02:04.786Z,98332.19
2018-12-29T03:04:49.603Z,98329.82
2018-12-29T03:07:38.194Z,98333.75
2018-12-29T03:10:22.655Z,98333.75
2018-12-29T03:12:58.683Z,98331.09
2018-12-29T03:15:42.033Z,98332.25
2018-12-29T03:18:29.472Z,98332.25
2018-12-29T03:21:09.464Z,98332.78
2018-12-29T03:23:56.127Z,98328.56
2018-12-29T03:26:38.174Z,98328.56
2018-12-29T03:29:19.834Z,98331.58
2018-12-29T03:32:06.203Z,98331.58
2018-12-29T03:34:49.527Z,98328.48
2018-12-29T03:37:26.361Z,98325.47
2018-12-29T03:40:14.907Z,98327.45
2018-12-29T03:42:53.381Z,98323.61
2018-12-29T03:45:35.875Z,98323.61
2018-12-29T03:48:28.042Z,98318.16
2018-12-29T03:51:05.830Z,98318.16
2018-12-29T03:53:46.182Z,98314.53
2018-12-29T03:56:34.441Z,98323.31
2018-12-29T03:59:10.125Z,98315.82
2018-12-29T04:01:56.026Z,98321.12
2018-12-29T04:04:39.118Z,98323.61
2018-12-29T04:07:10.007Z,98327.77
2018-12-29T04:09:59.762Z,98327.77
2018-12-29T04:12:39.013Z,98325.09
2018-12-29T04:15:15.093Z,98328.08
2018-12-29T04:18:03.408Z,98338.22
2018-12-29T04:20:39.155Z,98326.36
2018-12-29T04:23:19.223Z,98327.70
2018-12-29T04:25:59.785Z,98340.88
2018-12-29T04:28:41.332Z,98337.88
2018-12-29T04:31:11.725Z,98337.88
2018-12-29T04:34:02.189Z,98335.39
2018-12-29T04:36:48.524Z,98335.39
2018-12-29T04:39:18.943Z,98341.84
2018-12-29T04:42:04.150Z,98346.33
2018-12-29T04:44:43.102Z,98346.33
2018-12-29T04:47:24.700Z,98350.02
2018-12-29T04:50:15.322Z,98353.45
2018-12-29T04:52:53.727Z,98357.72
2018-12-29T04:55:43.609Z,98361.05
2018-12-29T04:58:27.305Z,98361.53
2018-12-29T05:01:00.481Z,98359.30
2018-12-29T05:03:39.681Z,98359.30
2018-12-29T05:06:12.785Z,98367.80
2018-12-29T05:08:46.952Z,98367.80
2018-12-29T05:11:20.406Z,98368.42
2018-12-29T05:14:01.565Z,98368.91
2018-12-29T05:16:45.481Z,98371.86
2018-12-29T05:19:17.085Z,98373.67
2018-12-29T05:21:53.869Z,98368.64
2018-12-29T05:24:32.575Z,98372.60
2018-12-29T05:27:07.179Z,98375.63
2018-12-29T05:29:58.111Z,98367.00
2018-12-29T05:32:40.614Z,98367.00
2018-12-29T05:35:31.403Z,98366.64
2018-12-29T05:38:12.885Z,98370.41
2018-12-29T05:40:49.533Z,98367.08
2018-12-29T05:43:29.722Z,98367.08
2018-12-29T05:46:20.348Z,98377.00
2018-12-29T05:48:52.365Z,98377.00
2018-12-29T05:51:22.334Z,98371.47
2018-12-29T05:54:07.980Z,98373.68
2018-12-29T05:56:49.090Z,98372.63
2018-12-29T05:59:20.163Z,98374.05
2018-12-29T06:02:08.820Z,98383.36
2018-12-29T06:04:51.057Z,98383.36
2018-12-29T06:07:23.132Z,98381.52
2018-12-29T06:10:10.155Z,98384.80
2018-12-29T06:12:51.463Z,98389.48
2018-12-29T06:15:23.284Z,98390.28
2018-12-29T06:18:08.865Z,98390.28
2018-12-29T06:20:50.344Z,98391.51
2018-12-29T06:23:20.202Z,98391.51
2018-12-29T06:26:07.023Z,98390.29
2018-12-29T06:28:56.019Z,98390.29
2018-12-29T06:31:28.868Z,98393.34
2018-12-29T06:34:09.483Z,98393.83
2018-12-29T06:36:49.735Z,98395.70
2018-12-29T06:39:23.393Z,98390.49
2018-12-29T06:41:59.786Z,98394.78
2018-12-29T06:44:39.864Z,98394.78
2018-12-29T06:47:14.252Z,98404.50
2018-12-29T06:50:02.461Z,98400.84
2018-12-29T06:52:53.839Z,98399.64
2018-12-29T06:55:21.376Z,98399.64
2018-12-29T06:57:57.974Z,98406.59
2018-12-29T07:00:38.760Z,98406.59
2018-12-29T07:03:09.654Z,98403.23
2018-12-29T07:05:53.271Z,98411.59
2018-12-29T07:08:37.076Z,98416.05
2018-12-29T07:11:07.537Z,98416.05
2018-12-29T07:13:54.730Z,98411.41
2018-12-29T07:16:30.729Z,98417.02
2018-12-29T07:19:08.252Z,98408.04
2018-12-29T07:21:57.940Z,98422.64
2018-12-29T07:24:34.281Z,98422.64
2018-12-29T07:27:09.570Z,98428.36
2018-12-29T07:29:53.934Z,98428.05
2018-12-29T07:32:29.400Z,98428.05
2018-12-29T07:35:01.262Z,98427.08
2018-12-29T07:37:36.758Z,98433.73
2018-12-29T07:40:17.203Z,98440.98
2018-12-29T07:42:52.717Z,98440.98
2018-12-29T07:45:38.812Z,98429.40
2018-12-29T07:48:24.916Z,98435.72
2018-12-29T07:50:55.629Z,98437.75
2018-12-29T07:53:35.762Z,98433.72
2018-12-29T07:56:13.820Z,98438.84
2018-12-29T07:58:50.697Z,98436.08
2018-12-29T08:01:23.718Z,98436.63
2018-12-29T08:04:00.312Z,98436.41
2018-12-29T08:06:36.482Z,98430.13
2018-12-29T08:09:17.753Z,98440.69
2018-12-29T08:12:10.716Z,98429.34
2018-12-29T08:14:43.475Z,98432.14
2018-12-29T08:17:25.159Z,98430.58
2018-12-29T08:20:12.187Z,98431.30
2018-12-29T08:22:50.481Z,98438.24
2018-12-29T08:25:30.871Z,98433.81
2018-12-29T08:28:14.652Z,98439.61
2018-12-29T08:30:55.701Z,98438.77
2018-12-29T08:33:38.213Z,98435.03
2018-12-29T08:36:20.935Z,98438.92
2018-12-29T08:39:05.174Z,98436.87
2018-12-29T08:41:50.466Z,98440.75
2018-12-29T08:44:39.243Z,98439.76
2018-12-29T08:47:21.912Z,98446.24
2018-12-29T08:50:00.174Z,98441.86
2018-12-29T08:52:37.688Z,98439.37
2018-12-29T08:55:18.028Z,98445.72
2018-12-29T08:57:54.336Z,98448.77
2018-12-29T09:00:40.188Z,98448.68
2018-12-29T09:03:22.693Z,98449.14
2018-12-29T09:06:05.641Z,98445.13
2018-12-29T09:08:52.467Z,98447.64
2018-12-29T09:11:36.747Z,98453.27
2018-12-29T09:14:06.775Z,98452.06
2018-12-29T09:16:49.136Z,98458.50
2018-12-29T09:19:35.263Z,98452.56
2018-12-29T09:22:09.483Z,98454.73
2018-12-29T09:24:43.266Z,98449.19
2018-12-29T09:27:32.212Z,98449.77
2018-12-29T09:30:15.986Z,98446.22
2018-12-29T09:33:06.265Z,98452.38
2018-12-29T09:35:57.684Z,98443.63
2018-12-29T09:38:33.719Z,98444.89
2018-12-29T09:41:13.769Z,98445.02
2018-12-29T09:43:49.451Z,98449.80
2018-12-29T09:46:25.802Z,98449.80
2018-12-29T09:49:12.292Z,98455.02
2018-12-29T09:51:48.310Z,98453.93
2018-12-29T09:54:26.040Z,98451.84
2018-12-29T09:57:03.960Z,98446.37
2018-12-29T09:59:40.934Z,98454.69
2018-12-29T10:02:23.136Z,98453.84
2018-12-29T10:05:04.297Z,98460.42
2018-12-29T10:07:40.678Z,98458.98
2018-12-29T10:10:17.247Z,98461.63
2018-12-29T10:13:03.971Z,98457.80
2018-12-29T10:15:36.383Z,98457.56
2018-12-29T10:18:18.575Z,98457.36
2018-12-29T10:21:00.509Z,98457.36
2018-12-29T10:23:32.692Z,98451.56
2018-12-29T10:26:12.651Z,98448.48
2018-12-29T10:28:46.960Z,98446.80
2018-12-29T10:31:16.915Z,98445.66
2018-12-29T10:33:46.729Z,98435.27
2018-12-29T10:36:17.049Z,98437.94
2018-12-29T10:38:47.525Z,98442.62
2018-12-29T10:41:17.342Z,98444.12
2018-12-29T10:43:47.472Z,98443.59
2018-12-29T10:46:17.582Z,98443.66
2018-12-29T10:48:47.604Z,98436.25
2018-12-29T10:51:17.985Z,98432.44
2018-12-29T10:53:48.252Z,98421.39
2018-12-29T10:56:18.043Z,98421.39
2018-12-29T10:58:47.871Z,98428.76
2018-12-29T11:01:19.425Z,98424.20
2018-12-29T11:03:52.019Z,98422.31
2018-12-29T11:06:22.124Z,98402.22
2018-12-29T11:08:52.367Z,98402.22
2018-12-29T11:11:22.256Z,98404.49
2018-12-29T11:13:52.285Z,98393.46
2018-12-29T11:16:27.048Z,98392.52
2018-12-29T11:18:57.606Z,98385.17
2018-12-29T11:21:28.640Z,98385.17
2018-12-29T11:23:58.731Z,98388.88
2018-12-29T11:26:28.642Z,98388.50
2018-12-29T11:28:58.631Z,98388.50
2018-12-29T11:31:32.736Z,98379.08
2018-12-29T11:34:03.121Z,98384.86
2018-12-29T11:36:34.314Z,98384.42
2018-12-29T11:39:07.958Z,98377.87
2018-12-29T11:41:39.363Z,98369.48
2018-12-29T11:44:09.482Z,98367.98
2018-12-29T11:46:42.405Z,98359.55
2018-12-29T11:49:18.119Z,98359.55
2018-12-29T11:51:50.821Z,98361.42
2018-12-29T11:54:21.450Z,98361.42
2018-12-29T11:56:55.473Z,98357.41
2018-12-29T11:59:25.853Z,98355.69
2018-12-29T12:01:55.803Z,98354.30
2018-12-29T12:04:28.674Z,98352.51
2018-12-29T12:07:05.741Z,98353.47
2018-12-29T12:09:38.459Z,98348.47
2018-12-29T12:12:14.142Z,98349.94
2018-12-29T12:14:45.546Z,98351.38
2018-12-29T12:17:20.994Z,98357.97
2018-12-29T12:19:51.329Z,98350.34
2018-12-29T12:22:21.356Z,98351.59
2018-12-29T12:24:51.553Z,98344.53
2018-12-29T12:27:24.401Z,98344.03
2018-12-29T12:29:56.719Z,98345.84
2018-12-29T12:32:29.835Z,98345.84
2018-12-29T12:35:00.234Z,98344.94
2018-12-29T12:37:30.145Z,98344.91
2018-12-29T12:40:00.482Z,98343.39
2018-12-29T12:42:31.862Z,98343.58
2018-12-29T12:45:02.561Z,98341.63
2018-12-29T12:47:36.737Z,98340.97
2018-12-29T12:50:07.159Z,98342.31
2018-12-29T12:52:39.310Z,98338.15
2018-12-29T12:55:11.521Z,98337.89
2018-12-29T12:57:41.549Z,98334.36
2018-12-29T13:00:14.097Z,98336.50
2018-12-29T13:02:47.437Z,98334.23
2018-12-29T13:05:18.798Z,98335.28
2018-12-29T13:07:50.556Z,98326.22
2018-12-29T13:10:37.228Z,98324.88
2018-12-29T13:13:09.733Z,98327.81
2018-12-29T13:15:39.549Z,98325.93
2018-12-29T13:18:13.169Z,98320.92
2018-12-29T13:20:42.655Z,98327.34
2018-12-29T13:23:12.685Z,98325.80
2018-12-29T13:25:42.465Z,98327.80
2018-12-29T13:28:12.531Z,98331.81
2018-12-29T13:30:42.329Z,98335.19
2018-12-29T13:33:12.354Z,98335.75
2018-12-29T13:35:42.751Z,98335.12
2018-12-29T13:38:14.439Z,98341.80
2018-12-29T13:40:46.517Z,98342.03
2018-12-29T13:43:17.721Z,98349.38
2018-12-29T13:45:48.922Z,98352.63
2018-12-29T13:48:23.256Z,98351.07
2018-12-29T13:50:53.822Z,98351.85
2018-12-29T13:53:24.415Z,98353.88
2018-12-29T13:55:57.745Z,98357.89
2018-12-29T13:58:28.140Z,98359.12
2018-12-29T14:00:59.111Z,98362.13
2018-12-29T14:03:31.134Z,98360.98
2018-12-29T14:06:01.839Z,98361.42
2018-12-29T14:08:35.113Z,98363.19
2018-12-29T14:11:07.476Z,98364.73
2018-12-29T14:13:37.671Z,98366.00
2018-12-29T14:16:08.032Z,98366.00
2018-12-29T14:18:38.458Z,98368.81
2018-12-29T14:21:13.483Z,98371.52
2018-12-29T14:23:46.326Z,98371.45
2018-12-29T14:26:16.620Z,98379.31
2018-12-29T14:28:48.940Z,98379.50
2018-12-29T14:31:19.545Z,98379.50
2018-12-29T14:33:52.600Z,98385.09
2018-12-29T14:36:22.713Z,98386.25
2018-12-29T14:38:53.039Z,98388.66
2018-12-29T14:41:28.428Z,98388.48
2018-12-29T14:44:01.174Z,98381.08
2018-12-29T14:46:34.721Z,98382.16
2018-12-29T14:49:05.263Z,98380.95
2018-12-29T14:51:36.651Z,98395.13
2018-12-29T14:54:08.618Z,98396.80
2018-12-29T14:56:44.543Z,98394.56
2018-12-29T14:59:19.869Z,98393.85
2018-12-29T15:01:49.722Z,98398.44
2018-12-29T15:04:28.996Z,98398.44
2018-12-29T15:07:06.210Z,98397.75
2018-12-29T15:09:38.520Z,98401.77
2018-12-29T15:12:17.505Z,98401.77
2018-12-29T15:14:47.060Z,98414.48
2018-12-29T15:17:23.087Z,98413.20
2018-12-29T15:19:55.214Z,98415.13
2018-12-29T15:22:25.777Z,98417.11
2018-12-29T15:24:55.799Z,98411.88
2018-12-29T15:27:27.526Z,98401.57
2018-12-29T15:30:03.357Z,98413.15
2018-12-29T15:32:34.820Z,98412.14
2018-12-29T15:35:06.523Z,98402.91
2018-12-29T15:37:39.979Z,98403.30
2018-12-29T15:40:14.104Z,98404.68
2018-12-29T15:42:49.268Z,98405.06
2018-12-29T15:45:19.638Z,98398.53
2018-12-29T15:48:01.948Z,98406.72
2018-12-29T15:50:37.319Z,98409.02
2018-12-29T15:53:08.237Z,98399.93
2018-12-29T15:55:38.119Z,98400.92
2018-12-29T15:58:08.466Z,98401.52
2018-12-29T16:00:39.044Z,98406.20
2018-12-29T16:03:15.676Z,98396.67
2018-12-29T16:05:47.360Z,98388.70
2018-12-29T16:08:19.223Z,98389.59
2018-12-29T16:10:56.528Z,98390.49
2018-12-29T16:13:26.739Z,98403.73
2018-12-29T16:15:56.866Z,98400.23
2018-12-29T16:18:27.255Z,98391.66
2018-12-29T16:20:57.292Z,98385.73
2018-12-29T16:23:27.484Z,98383.45
2018-12-29T16:25:58.857Z,98381.47
2018-12-29T16:28:28.869Z,98373.95
2018-12-29T16:30:58.876Z,98375.98
2018-12-29T16:33:33.312Z,98383.70
2018-12-29T16:36:04.611Z,98379.19
2018-12-29T16:38:39.974Z,98391.73
2018-12-29T16:41:11.301Z,98404.41
2018-12-29T16:43:41.805Z,98410.30
2018-12-29T16:46:12.465Z,98413.53
2018-12-29T16:48:47.751Z,98421.84
2018-12-29T16:51:18.676Z,98420.66
2018-12-29T16:53:50.327Z,98419.02
2018-12-29T16:56:20.673Z,98422.14
2018-12-29T16:58:51.514Z,98419.38
2018-12-29T17:01:22.584Z,98423.78
2018-12-29T17:03:56.752Z,98424.89
2018-12-29T17:06:29.060Z,98429.89
2018-12-29T17:09:08.221Z,98423.55
2018-12-29T17:11:44.044Z,98431.18
2018-12-29T17:14:15.256Z,98439.79
2018-12-29T17:16:49.546Z,98438.61
2018-12-29T17:19:22.683Z,98436.83
2018-12-29T17:21:54.492Z,98435.19
2018-12-29T17:24:32.717Z,98432.20
2018-12-29T17:27:11.923Z,98440.98
2018-12-29T17:29:51.314Z,98446.89
2018-12-29T17:32:26.994Z,98457.83
2018-12-29T17:34:59.230Z,98458.19
2018-12-29T17:37:32.487Z,98462.52
2018-12-29T17:40:05.039Z,98460.45
2018-12-29T17:42:40.273Z,98459.46
2018-12-29T17:45:11.916Z,98455.05
2018-12-29T17:47:44.357Z,98459.81
2018-12-29T17:50:24.587Z,98460.23
2018-12-29T17:52:56.138Z,98461.12
2018-12-29T17:55:26.553Z,98464.20
2018-12-29T17:57:57.360Z,98459.43
2018-12-29T18:00:30.215Z,98459.28
2018-12-29T18:03:09.059Z,98461.03
2018-12-29T18:05:44.233Z,98457.03
2018-12-29T18:08:14.355Z,98457.03
2018-12-29T18:10:47.130Z,98460.08
2018-12-29T18:13:17.540Z,98450.09
2018-12-29T18:15:48.066Z,98454.36
2018-12-29T18:18:19.216Z,98455.81
2018-12-29T18:20:49.335Z,98451.66
2018-12-29T18:23:19.104Z,98451.13
2018-12-29T18:25:51.019Z,98449.38
2018-12-29T18:28:22.590Z,98444.77
2018-12-29T18:30:52.787Z,98460.45
2018-12-29T18:33:23.318Z,98450.52
2018-12-29T18:35:54.473Z,98448.27
2018-12-29T18:38:24.537Z,98447.95
2018-12-29T18:40:55.115Z,98440.67
2018-12-29T18:43:25.682Z,98446.02
2018-12-29T18:45:57.699Z,98443.69
2018-12-29T18:48:28.408Z,98448.34
2018-12-29T18:50:59.388Z,98443.88
2018-12-29T18:53:29.390Z,98447.16
2018-12-29T18:55:59.453Z,98448.98
2018-12-29T18:58:29.240Z,98447.27
2018-12-29T19:01:19.637Z,98443.09
2018-12-29T19:03:49.543Z,98443.48
2018-12-29T19:06:19.532Z,98440.03
2018-12-29T19:08:49.707Z,98447.48
2018-12-29T19:11:19.615Z,98444.52
2018-12-29T19:13:49.585Z,98433.45
2018-12-29T19:16:19.754Z,98440.42
2018-12-29T19:18:51.132Z,98446.66
2018-12-29T19:21:23.732Z,98443.73
2018-12-29T19:23:55.683Z,98450.16
2018-12-29T19:26:27.392Z,98449.02
2018-12-29T19:28:58.685Z,98451.00
2018-12-29T19:31:30.070Z,98447.66
2018-12-29T19:34:01.482Z,98453.27
2018-12-29T19:36:32.970Z,98447.11
2018-12-29T19:39:05.623Z,98447.48
2018-12-29T19:41:46.317Z,98450.71
2018-12-29T19:44:16.233Z,98442.80
2018-12-29T19:46:54.240Z,98439.48
2018-12-29T19:49:26.599Z,98435.23
2018-12-29T19:52:06.370Z,98444.17
2018-12-29T19:54:40.113Z,98442.58
2018-12-29T19:57:13.395Z,98446.73
2018-12-29T19:59:47.272Z,98445.25
2018-12-29T20:02:18.753Z,98448.30
2018-12-29T20:04:53.524Z,98441.17
2018-12-29T20:07:31.607Z,98438.45
2018-12-29T20:10:03.781Z,98439.72
2018-12-29T20:12:42.581Z,98434.14
2018-12-29T20:15:19.486Z,98440.55
2018-12-29T20:17:54.397Z,98439.80
2018-12-29T20:20:27.723Z,98442.70
2018-12-29T20:23:02.987Z,98436.95
2018-12-29T20:25:35.485Z,98437.84
2018-12-29T20:28:06.751Z,98437.76
2018-12-29T20:30:39.507Z,98439.73
2018-12-29T20:33:12.311Z,98438.59
2018-12-29T20:35:43.912Z,98441.70
2018-12-29T20:38:14.887Z,98435.17
2018-12-29T20:40:46.698Z,98434.56
2018-12-29T20:43:17.857Z,98439.41
2018-12-29T20:45:49.923Z,98443.63
2018-12-29T20:48:21.092Z,98440.23
2018-12-29T20:50:51.526Z,98445.42
2018-12-29T20:53:23.810Z,98446.92
2018-12-29T20:55:54.372Z,98443.41
2018-12-29T20:58:25.702Z,98445.06
2018-12-29T21:00:57.704Z,98447.66
2018-12-29T21:03:31.061Z,98443.53
2018-12-29T21:06:01.851Z,98442.45
2018-12-29T21:08:34.395Z,98435.62
2018-12-29T21:11:05.708Z,98440.67
2018-12-29T21:13:38.778Z,98435.52
2018-12-29T21:16:10.433Z,98438.05
2018-12-29T21:18:41.569Z,98443.48
2018-12-29T21:21:13.573Z,98447.18
2018-12-29T21:23:46.162Z,98456.19
2018-12-29T21:26:18.296Z,98458.21
2018-12-29T21:28:50.387Z,98458.17
2018-12-29T21:31:21.691Z,98452.14
2018-12-29T21:33:56.470Z,98455.64
2018-12-29T21:36:27.973Z,98452.00
2018-12-29T21:39:02.292Z,98453.27
2018-12-29T21:41:34.565Z,98455.23
2018-12-29T21:44:04.835Z,98457.89
2018-12-29T21:46:35.529Z,98457.00
2018-12-29T21:49:05.694Z,98463.64
2018-12-29T21:51:41.901Z,98462.64
2018-12-29T21:54:13.198Z,98457.34
2018-12-29T21:56:47.110Z,98455.35
2018-12-29T21:59:18.562Z,98459.97
2018-12-29T22:01:48.529Z,98460.31
2018-12-29T22:04:19.548Z,98460.59
2018-12-29T22:07:07.584Z,98463.45
2018-12-29T22:09:48.017Z,98455.16
2018-12-29T22:12:36.959Z,98446.47
2018-12-29T22:15:05.009Z,98448.34
2018-12-29T22:20:18.655Z,98450.21
2018-12-29T22:22:51.808Z,98452.00
2018-12-29T22:25:32.293Z,98453.98
2018-12-29T22:28:09.940Z,98459.44
2018-12-29T22:30:46.743Z,98451.36
2018-12-29T22:33:21.677Z,98448.19
2018-12-29T22:35:55.796Z,98449.56
2018-12-29T22:38:29.148Z,98448.73
2018-12-29T22:41:01.865Z,98448.16
2018-12-29T22:43:33.631Z,98447.81
2018-12-29T22:46:03.749Z,98449.67
2018-12-29T22:48:45.699Z,98446.75
2018-12-29T22:51:19.927Z,98453.53
2018-12-29T22:54:00.788Z,98448.56
2018-12-29T22:56:35.106Z,98445.02
2018-12-29T22:59:08.054Z,98445.02
2018-12-29T23:01:38.364Z,98447.81
2018-12-29T23:04:13.344Z,98445.66
2018-12-29T23:06:48.800Z,98441.66
2018-12-29T23:09:20.464Z,98434.76
2018-12-29T23:11:57.171Z,98436.73
2018-12-29T23:14:29.425Z,98441.27
2018-12-29T23:17:08.593Z,98438.81
2018-12-29T23:19:42.477Z,98432.82
2018-12-29T23:22:17.364Z,98432.82
2018-12-29T23:24:49.199Z,98430.98
2018-12-29T23:27:19.486Z,98430.98
2018-12-29T23:29:52.431Z,98439.80
2018-12-29T23:32:22.694Z,98433.20
2018-12-29T23:35:03.915Z,98428.94
2018-12-29T23:37:32.060Z,98428.94
2018-12-29T23:40:09.506Z,98438.69
2018-12-29T23:42:45.877Z,98431.83
2018-12-29T23:45:18.557Z,98422.34
2018-12-29T23:47:53.407Z,98417.80
2018-12-29T23:50:23.767Z,98418.53
2018-12-29T23:52:56.713Z,98420.89
2018-12-29T23:55:33.091Z,98413.69
2018-12-29T23:58:05.493Z,98409.30
